sensor_id;sensor_type;location;lat;lon;timestamp;temperature;humidity
578;DHT22;275;48.492;9.214;2024-02-28T00:02:00;11.60;30.00
578;DHT22;275;48.492;9.214;2024-02-28T00:04:29;10.90;31.60
578;DHT22;275;48.492;9.214;2024-02-28T00:06:56;10.90;31.60
578;DHT22;275;48.492;9.214;2024-02-28T00:09:23;10.60;32.40
578;DHT22;275;48.492;9.214;2024-02-28T00:11:50;10.80;32.00
578;DHT22;275;48.492;9.214;2024-02-28T00:14:16;10.50;32.60
578;DHT22;275;48.492;9.214;2024-02-28T00:16:45;10.60;32.60
578;DHT22;275;48.492;9.214;2024-02-28T00:19:12;10.10;33.50
578;DHT22;275;48.492;9.214;2024-02-28T00:21:41;9.60;36.30
578;DHT22;275;48.492;9.214;2024-02-28T00:24:08;9.80;35.80
578;DHT22;275;48.492;9.214;2024-02-28T00:26:35;10.00;34.30
578;DHT22;275;48.492;9.214;2024-02-28T00:29:01;9.80;35.50
578;DHT22;275;48.492;9.214;2024-02-28T00:31:28;10.00;34.40
578;DHT22;275;48.492;9.214;2024-02-28T00:33:55;10.40;33.00
578;DHT22;275;48.492;9.214;2024-02-28T00:36:22;10.30;33.00
578;DHT22;275;48.492;9.214;2024-02-28T00:38:50;10.20;33.20
578;DHT22;275;48.492;9.214;2024-02-28T00:41:17;10.30;33.30
578;DHT22;275;48.492;9.214;2024-02-28T00:43:44;10.40;32.60
578;DHT22;275;48.492;9.214;2024-02-28T00:46:11;10.60;32.30
578;DHT22;275;48.492;9.214;2024-02-28T00:48:38;10.70;31.70
578;DHT22;275;48.492;9.214;2024-02-28T00:51:05;10.80;31.30
578;DHT22;275;48.492;9.214;2024-02-28T00:53:33;10.60;31.80
578;DHT22;275;48.492;9.214;2024-02-28T00:56:01;10.50;32.00
578;DHT22;275;48.492;9.214;2024-02-28T00:58:28;10.40;32.40
578;DHT22;275;48.492;9.214;2024-02-28T01:00:55;10.50;32.10
578;DHT22;275;48.492;9.214;2024-02-28T01:03:23;10.50;32.10
578;DHT22;275;48.492;9.214;2024-02-28T01:05:49;10.50;32.00
578;DHT22;275;48.492;9.214;2024-02-28T01:08:17;10.50;32.00
578;DHT22;275;48.492;9.214;2024-02-28T01:10:44;10.60;31.70
578;DHT22;275;48.492;9.214;2024-02-28T01:13:12;10.70;31.30
578;DHT22;275;48.492;9.214;2024-02-28T01:15:39;10.70;31.30
578;DHT22;275;48.492;9.214;2024-02-28T01:18:07;10.90;30.80
578;DHT22;275;48.492;9.214;2024-02-28T01:20:34;10.80;30.90
578;DHT22;275;48.492;9.214;2024-02-28T01:23:00;11.00;30.50
578;DHT22;275;48.492;9.214;2024-02-28T01:25:27;10.90;30.50
578;DHT22;275;48.492;9.214;2024-02-28T01:27:56;11.00;30.30
578;DHT22;275;48.492;9.214;2024-02-28T01:30:24;10.90;30.70
578;DHT22;275;48.492;9.214;2024-02-28T01:32:51;10.70;31.10
578;DHT22;275;48.492;9.214;2024-02-28T01:35:18;10.70;31.20
578;DHT22;275;48.492;9.214;2024-02-28T01:37:45;10.60;31.20
578;DHT22;275;48.492;9.214;2024-02-28T01:40:12;10.70;31.40
578;DHT22;275;48.492;9.214;2024-02-28T01:42:39;10.70;31.00
578;DHT22;275;48.492;9.214;2024-02-28T01:45:07;10.90;30.90
578;DHT22;275;48.492;9.214;2024-02-28T01:47:36;10.80;31.10
578;DHT22;275;48.492;9.214;2024-02-28T01:50:04;10.90;31.10
578;DHT22;275;48.492;9.214;2024-02-28T01:52:31;10.80;31.20
578;DHT22;275;48.492;9.214;2024-02-28T01:54:58;10.90;31.10
578;DHT22;275;48.492;9.214;2024-02-28T01:57:26;11.00;31.00
578;DHT22;275;48.492;9.214;2024-02-28T01:59:53;11.00;30.70
578;DHT22;275;48.492;9.214;2024-02-28T02:02:21;11.10;30.40
578;DHT22;275;48.492;9.214;2024-02-28T02:04:49;11.20;30.00
578;DHT22;275;48.492;9.214;2024-02-28T02:07:18;10.90;30.40
578;DHT22;275;48.492;9.214;2024-02-28T02:09:45;10.90;30.40
578;DHT22;275;48.492;9.214;2024-02-28T02:12:12;11.00;30.40
578;DHT22;275;48.492;9.214;2024-02-28T02:14:39;11.10;30.10
578;DHT22;275;48.492;9.214;2024-02-28T02:17:06;10.90;30.50
578;DHT22;275;48.492;9.214;2024-02-28T02:19:33;10.90;30.60
578;DHT22;275;48.492;9.214;2024-02-28T02:22:03;11.00;30.30
578;DHT22;275;48.492;9.214;2024-02-28T02:24:33;10.90;30.70
578;DHT22;275;48.492;9.214;2024-02-28T02:27:01;10.90;30.30
578;DHT22;275;48.492;9.214;2024-02-28T02:29:30;11.10;30.40
578;DHT22;275;48.492;9.214;2024-02-28T02:31:56;11.00;30.80
578;DHT22;275;48.492;9.214;2024-02-28T02:34:23;11.20;30.10
578;DHT22;275;48.492;9.214;2024-02-28T02:36:49;11.30;29.80
578;DHT22;275;48.492;9.214;2024-02-28T02:39:16;11.10;30.40
578;DHT22;275;48.492;9.214;2024-02-28T02:41:44;11.30;30.10
578;DHT22;275;48.492;9.214;2024-02-28T02:44:12;11.40;29.80
578;DHT22;275;48.492;9.214;2024-02-28T02:46:39;11.50;29.70
578;DHT22;275;48.492;9.214;2024-02-28T02:49:05;11.30;29.90
578;DHT22;275;48.492;9.214;2024-02-28T02:51:32;11.20;30.00
578;DHT22;275;48.492;9.214;2024-02-28T02:53:59;11.20;30.10
578;DHT22;275;48.492;9.214;2024-02-28T02:56:26;11.10;30.10
578;DHT22;275;48.492;9.214;2024-02-28T02:58:54;11.30;30.00
578;DHT22;275;48.492;9.214;2024-02-28T03:01:21;11.40;29.90
578;DHT22;275;48.492;9.214;2024-02-28T03:03:47;11.50;29.80
578;DHT22;275;48.492;9.214;2024-02-28T03:06:14;11.70;29.40
578;DHT22;275;48.492;9.214;2024-02-28T03:08:41;11.60;29.50
578;DHT22;275;48.492;9.214;2024-02-28T03:11:08;11.50;29.60
578;DHT22;275;48.492;9.214;2024-02-28T03:13:35;11.50;29.60
578;DHT22;275;48.492;9.214;2024-02-28T03:16:05;11.40;29.90
578;DHT22;275;48.492;9.214;2024-02-28T03:18:32;11.50;29.60
578;DHT22;275;48.492;9.214;2024-02-28T03:20:59;11.60;29.40
578;DHT22;275;48.492;9.214;2024-02-28T03:23:25;11.70;29.30
578;DHT22;275;48.492;9.214;2024-02-28T03:25:52;11.80;29.10
578;DHT22;275;48.492;9.214;2024-02-28T03:28:19;11.90;29.10
578;DHT22;275;48.492;9.214;2024-02-28T03:30:46;12.10;28.70
578;DHT22;275;48.492;9.214;2024-02-28T03:33:14;11.70;29.40
578;DHT22;275;48.492;9.214;2024-02-28T03:35:41;11.70;29.40
578;DHT22;275;48.492;9.214;2024-02-28T03:38:08;11.70;29.20
578;DHT22;275;48.492;9.214;2024-02-28T03:40:35;11.80;29.10
578;DHT22;275;48.492;9.214;2024-02-28T03:43:02;11.60;29.30
578;DHT22;275;48.492;9.214;2024-02-28T03:45:29;11.50;29.50
578;DHT22;275;48.492;9.214;2024-02-28T03:47:55;11.50;29.70
578;DHT22;275;48.492;9.214;2024-02-28T03:50:24;11.70;29.00
578;DHT22;275;48.492;9.214;2024-02-28T03:52:51;11.40;29.70
578;DHT22;275;48.492;9.214;2024-02-28T03:55:17;11.40;29.80
578;DHT22;275;48.492;9.214;2024-02-28T03:57:47;11.30;30.00
578;DHT22;275;48.492;9.214;2024-02-28T04:00:14;11.10;30.70
578;DHT22;275;48.492;9.214;2024-02-28T04:02:41;11.20;30.50
578;DHT22;275;48.492;9.214;2024-02-28T04:05:08;11.30;30.10
578;DHT22;275;48.492;9.214;2024-02-28T04:07:36;11.50;29.90
578;DHT22;275;48.492;9.214;2024-02-28T04:10:04;11.50;30.00
578;DHT22;275;48.492;9.214;2024-02-28T04:12:31;11.50;29.80
578;DHT22;275;48.492;9.214;2024-02-28T04:14:58;11.50;29.70
578;DHT22;275;48.492;9.214;2024-02-28T04:17:25;11.70;29.30
578;DHT22;275;48.492;9.214;2024-02-28T04:19:52;11.90;29.00
578;DHT22;275;48.492;9.214;2024-02-28T04:22:19;11.80;29.10
578;DHT22;275;48.492;9.214;2024-02-28T04:24:47;11.90;28.80
578;DHT22;275;48.492;9.214;2024-02-28T04:27:14;11.70;29.20
578;DHT22;275;48.492;9.214;2024-02-28T04:29:41;11.50;29.80
578;DHT22;275;48.492;9.214;2024-02-28T04:32:07;11.50;29.40
578;DHT22;275;48.492;9.214;2024-02-28T04:34:36;11.40;29.60
578;DHT22;275;48.492;9.214;2024-02-28T04:37:03;11.40;29.70
578;DHT22;275;48.492;9.214;2024-02-28T04:39:29;11.10;30.00
578;DHT22;275;48.492;9.214;2024-02-28T04:41:58;11.00;30.20
578;DHT22;275;48.492;9.214;2024-02-28T04:44:24;11.30;30.00
578;DHT22;275;48.492;9.214;2024-02-28T04:46:51;11.10;30.10
578;DHT22;275;48.492;9.214;2024-02-28T04:49:18;11.10;30.00
578;DHT22;275;48.492;9.214;2024-02-28T04:51:45;11.30;29.70
578;DHT22;275;48.492;9.214;2024-02-28T04:54:12;11.20;29.90
578;DHT22;275;48.492;9.214;2024-02-28T04:56:40;11.10;30.00
578;DHT22;275;48.492;9.214;2024-02-28T04:59:12;11.20;29.80
578;DHT22;275;48.492;9.214;2024-02-28T05:01:39;11.20;29.80
578;DHT22;275;48.492;9.214;2024-02-28T05:04:08;11.40;29.30
578;DHT22;275;48.492;9.214;2024-02-28T05:06:35;11.20;29.80
578;DHT22;275;48.492;9.214;2024-02-28T05:09:03;10.70;31.00
578;DHT22;275;48.492;9.214;2024-02-28T05:11:30;10.50;32.10
578;DHT22;275;48.492;9.214;2024-02-28T05:13:57;10.80;31.30
578;DHT22;275;48.492;9.214;2024-02-28T05:16:26;11.10;30.30
578;DHT22;275;48.492;9.214;2024-02-28T05:18:52;11.40;29.80
578;DHT22;275;48.492;9.214;2024-02-28T05:21:20;11.40;29.60
578;DHT22;275;48.492;9.214;2024-02-28T05:23:46;11.20;29.60
578;DHT22;275;48.492;9.214;2024-02-28T05:26:13;10.80;30.80
578;DHT22;275;48.492;9.214;2024-02-28T05:28:40;11.00;30.20
578;DHT22;275;48.492;9.214;2024-02-28T05:31:20;10.80;30.30
578;DHT22;275;48.492;9.214;2024-02-28T05:33:50;10.60;31.10
578;DHT22;275;48.492;9.214;2024-02-28T05:36:17;10.40;31.30
578;DHT22;275;48.492;9.214;2024-02-28T05:38:44;10.70;31.30
578;DHT22;275;48.492;9.214;2024-02-28T05:41:11;10.90;31.40
578;DHT22;275;48.492;9.214;2024-02-28T05:43:38;11.00;30.00
578;DHT22;275;48.492;9.214;2024-02-28T05:46:05;11.10;29.80
578;DHT22;275;48.492;9.214;2024-02-28T05:48:32;10.90;30.10
578;DHT22;275;48.492;9.214;2024-02-28T05:51:02;10.90;30.40
578;DHT22;275;48.492;9.214;2024-02-28T05:53:29;10.30;32.10
578;DHT22;275;48.492;9.214;2024-02-28T05:55:58;10.40;31.70
578;DHT22;275;48.492;9.214;2024-02-28T05:58:25;10.50;32.40
578;DHT22;275;48.492;9.214;2024-02-28T06:00:51;10.70;30.80
578;DHT22;275;48.492;9.214;2024-02-28T06:03:18;10.80;30.60
578;DHT22;275;48.492;9.214;2024-02-28T06:05:45;10.90;30.40
578;DHT22;275;48.492;9.214;2024-02-28T06:08:14;10.70;30.80
578;DHT22;275;48.492;9.214;2024-02-28T06:10:41;10.60;31.30
578;DHT22;275;48.492;9.214;2024-02-28T06:13:08;10.70;30.80
578;DHT22;275;48.492;9.214;2024-02-28T06:15:35;10.70;30.90
578;DHT22;275;48.492;9.214;2024-02-28T06:18:02;10.70;30.80
578;DHT22;275;48.492;9.214;2024-02-28T06:20:30;10.90;30.10
578;DHT22;275;48.492;9.214;2024-02-28T06:22:57;11.00;29.80
578;DHT22;275;48.492;9.214;2024-02-28T06:25:25;10.40;31.20
578;DHT22;275;48.492;9.214;2024-02-28T06:27:53;9.60;34.30
578;DHT22;275;48.492;9.214;2024-02-28T06:30:20;9.80;34.40
578;DHT22;275;48.492;9.214;2024-02-28T06:32:47;10.10;32.40
578;DHT22;275;48.492;9.214;2024-02-28T06:35:14;10.00;32.40
578;DHT22;275;48.492;9.214;2024-02-28T06:37:41;10.10;32.30
578;DHT22;275;48.492;9.214;2024-02-28T06:40:14;10.20;31.90
578;DHT22;275;48.492;9.214;2024-02-28T06:42:42;10.30;31.70
578;DHT22;275;48.492;9.214;2024-02-28T06:45:09;10.60;30.90
578;DHT22;275;48.492;9.214;2024-02-28T06:47:36;10.80;30.50
578;DHT22;275;48.492;9.214;2024-02-28T06:50:03;10.90;30.00
578;DHT22;275;48.492;9.214;2024-02-28T06:52:30;10.50;30.40
578;DHT22;275;48.492;9.214;2024-02-28T06:54:57;10.10;31.90
578;DHT22;275;48.492;9.214;2024-02-28T06:57:25;9.50;34.80
578;DHT22;275;48.492;9.214;2024-02-28T06:59:53;9.90;33.80
578;DHT22;275;48.492;9.214;2024-02-28T07:02:20;10.40;31.50
578;DHT22;275;48.492;9.214;2024-02-28T07:04:47;10.30;31.70
578;DHT22;275;48.492;9.214;2024-02-28T07:07:14;10.70;30.80
578;DHT22;275;48.492;9.214;2024-02-28T07:09:41;11.00;29.80
578;DHT22;275;48.492;9.214;2024-02-28T07:12:08;11.20;29.30
578;DHT22;275;48.492;9.214;2024-02-28T07:14:34;10.30;31.10
578;DHT22;275;48.492;9.214;2024-02-28T07:17:03;10.40;31.20
578;DHT22;275;48.492;9.214;2024-02-28T07:19:32;10.10;32.00
578;DHT22;275;48.492;9.214;2024-02-28T07:21:59;10.20;31.80
578;DHT22;275;48.492;9.214;2024-02-28T07:24:26;10.30;31.40
578;DHT22;275;48.492;9.214;2024-02-28T07:26:52;10.30;31.30
578;DHT22;275;48.492;9.214;2024-02-28T07:29:19;10.60;30.70
578;DHT22;275;48.492;9.214;2024-02-28T07:31:46;10.60;30.60
578;DHT22;275;48.492;9.214;2024-02-28T07:34:15;10.90;29.90
578;DHT22;275;48.492;9.214;2024-02-28T07:36:41;11.30;29.00
578;DHT22;275;48.492;9.214;2024-02-28T07:39:08;10.60;30.20
578;DHT22;275;48.492;9.214;2024-02-28T07:41:38;10.40;31.10
578;DHT22;275;48.492;9.214;2024-02-28T07:44:05;10.40;31.90
578;DHT22;275;48.492;9.214;2024-02-28T07:46:32;10.60;30.60
578;DHT22;275;48.492;9.214;2024-02-28T07:48:59;11.10;29.80
578;DHT22;275;48.492;9.214;2024-02-28T07:51:28;11.20;28.90
578;DHT22;275;48.492;9.214;2024-02-28T07:53:55;11.30;28.90
578;DHT22;275;48.492;9.214;2024-02-28T07:56:22;11.30;29.00
578;DHT22;275;48.492;9.214;2024-02-28T07:58:49;11.20;29.00
578;DHT22;275;48.492;9.214;2024-02-28T08:01:16;11.10;29.40
578;DHT22;275;48.492;9.214;2024-02-28T08:03:42;11.40;28.80
578;DHT22;275;48.492;9.214;2024-02-28T08:06:10;11.40;28.80
578;DHT22;275;48.492;9.214;2024-02-28T08:08:38;10.80;29.50
578;DHT22;275;48.492;9.214;2024-02-28T08:11:05;10.40;31.00
578;DHT22;275;48.492;9.214;2024-02-28T08:13:32;10.90;29.80
578;DHT22;275;48.492;9.214;2024-02-28T08:15:59;11.40;28.80
578;DHT22;275;48.492;9.214;2024-02-28T08:18:26;11.20;28.70
578;DHT22;275;48.492;9.214;2024-02-28T08:20:53;10.60;29.70
578;DHT22;275;48.492;9.214;2024-02-28T08:23:23;10.40;30.20
578;DHT22;275;48.492;9.214;2024-02-28T08:25:51;10.50;30.00
578;DHT22;275;48.492;9.214;2024-02-28T08:28:18;10.30;30.80
578;DHT22;275;48.492;9.214;2024-02-28T08:30:45;9.90;32.80
578;DHT22;275;48.492;9.214;2024-02-28T08:33:12;9.90;32.90
578;DHT22;275;48.492;9.214;2024-02-28T08:35:39;10.00;31.90
578;DHT22;275;48.492;9.214;2024-02-28T08:38:06;10.20;31.60
578;DHT22;275;48.492;9.214;2024-02-28T08:40:32;10.50;30.50
578;DHT22;275;48.492;9.214;2024-02-28T08:43:01;11.20;29.10
578;DHT22;275;48.492;9.214;2024-02-28T08:45:27;10.60;30.10
578;DHT22;275;48.492;9.214;2024-02-28T08:47:54;10.80;29.70
578;DHT22;275;48.492;9.214;2024-02-28T08:50:23;10.60;30.00
578;DHT22;275;48.492;9.214;2024-02-28T08:52:50;10.90;29.50
578;DHT22;275;48.492;9.214;2024-02-28T08:55:16;10.70;29.70
578;DHT22;275;48.492;9.214;2024-02-28T08:57:45;11.00;28.90
578;DHT22;275;48.492;9.214;2024-02-28T09:00:14;10.30;30.00
578;DHT22;275;48.492;9.214;2024-02-28T09:02:41;10.20;30.90
578;DHT22;275;48.492;9.214;2024-02-28T09:05:08;10.20;30.40
578;DHT22;275;48.492;9.214;2024-02-28T09:07:36;10.90;29.80
578;DHT22;275;48.492;9.214;2024-02-28T09:10:03;10.40;29.70
578;DHT22;275;48.492;9.214;2024-02-28T09:12:31;9.60;32.90
578;DHT22;275;48.492;9.214;2024-02-28T09:14:58;9.50;32.90
578;DHT22;275;48.492;9.214;2024-02-28T09:17:27;9.60;33.20
578;DHT22;275;48.492;9.214;2024-02-28T09:19:53;9.70;32.50
578;DHT22;275;48.492;9.214;2024-02-28T09:22:20;9.50;33.20
578;DHT22;275;48.492;9.214;2024-02-28T09:24:49;9.70;34.60
578;DHT22;275;48.492;9.214;2024-02-28T09:27:16;10.20;31.60
578;DHT22;275;48.492;9.214;2024-02-28T09:29:43;10.50;30.20
578;DHT22;275;48.492;9.214;2024-02-28T09:32:10;10.40;30.60
578;DHT22;275;48.492;9.214;2024-02-28T09:34:38;10.70;29.90
578;DHT22;275;48.492;9.214;2024-02-28T09:37:05;10.70;29.50
578;DHT22;275;48.492;9.214;2024-02-28T09:39:32;11.10;28.70
578;DHT22;275;48.492;9.214;2024-02-28T09:42:00;11.10;28.50
578;DHT22;275;48.492;9.214;2024-02-28T09:44:27;11.30;28.60
578;DHT22;275;48.492;9.214;2024-02-28T09:46:54;11.20;28.60
578;DHT22;275;48.492;9.214;2024-02-28T09:49:22;11.30;28.40
578;DHT22;275;48.492;9.214;2024-02-28T09:51:53;11.40;28.00
578;DHT22;275;48.492;9.214;2024-02-28T09:54:20;11.70;27.40
578;DHT22;275;48.492;9.214;2024-02-28T09:56:47;11.30;28.20
578;DHT22;275;48.492;9.214;2024-02-28T09:59:15;11.00;28.60
578;DHT22;275;48.492;9.214;2024-02-28T10:01:52;11.10;28.30
578;DHT22;275;48.492;9.214;2024-02-28T10:04:20;11.10;28.60
578;DHT22;275;48.492;9.214;2024-02-28T10:06:47;11.20;28.30
578;DHT22;275;48.492;9.214;2024-02-28T10:09:16;10.70;29.10
578;DHT22;275;48.492;9.214;2024-02-28T10:11:43;10.80;29.20
578;DHT22;275;48.492;9.214;2024-02-28T10:14:10;11.10;28.60
578;DHT22;275;48.492;9.214;2024-02-28T10:16:37;10.70;29.30
578;DHT22;275;48.492;9.214;2024-02-28T10:19:05;11.30;28.50
578;DHT22;275;48.492;9.214;2024-02-28T10:21:32;11.20;28.30
578;DHT22;275;48.492;9.214;2024-02-28T10:23:59;11.10;28.70
578;DHT22;275;48.492;9.214;2024-02-28T10:26:27;11.10;28.60
578;DHT22;275;48.492;9.214;2024-02-28T10:28:55;10.90;28.70
578;DHT22;275;48.492;9.214;2024-02-28T10:31:22;10.90;29.00
578;DHT22;275;48.492;9.214;2024-02-28T10:33:49;11.40;28.10
578;DHT22;275;48.492;9.214;2024-02-28T10:36:17;10.60;29.60
578;DHT22;275;48.492;9.214;2024-02-28T10:38:44;11.20;28.50
578;DHT22;275;48.492;9.214;2024-02-28T10:41:12;11.70;27.70
578;DHT22;275;48.492;9.214;2024-02-28T10:43:43;11.50;27.60
578;DHT22;275;48.492;9.214;2024-02-28T10:46:10;11.90;27.10
578;DHT22;275;48.492;9.214;2024-02-28T10:48:40;12.30;26.30
578;DHT22;275;48.492;9.214;2024-02-28T10:51:08;11.90;26.90
578;DHT22;275;48.492;9.214;2024-02-28T10:53:37;11.80;27.10
578;DHT22;275;48.492;9.214;2024-02-28T10:56:09;11.30;28.00
578;DHT22;275;48.492;9.214;2024-02-28T10:58:47;11.70;27.40
578;DHT22;275;48.492;9.214;2024-02-28T11:01:16;11.50;27.50
578;DHT22;275;48.492;9.214;2024-02-28T11:03:44;11.20;28.10
578;DHT22;275;48.492;9.214;2024-02-28T11:06:16;10.90;28.50
578;DHT22;275;48.492;9.214;2024-02-28T11:08:46;11.10;28.30
578;DHT22;275;48.492;9.214;2024-02-28T11:11:14;11.80;27.10
578;DHT22;275;48.492;9.214;2024-02-28T11:13:52;11.50;27.10
578;DHT22;275;48.492;9.214;2024-02-28T11:16:27;11.80;26.70
578;DHT22;275;48.492;9.214;2024-02-28T11:18:54;11.70;26.90
578;DHT22;275;48.492;9.214;2024-02-28T11:21:23;11.80;27.00
578;DHT22;275;48.492;9.214;2024-02-28T11:23:51;11.80;26.80
578;DHT22;275;48.492;9.214;2024-02-28T11:26:18;11.70;27.00
578;DHT22;275;48.492;9.214;2024-02-28T11:28:47;12.20;26.00
578;DHT22;275;48.492;9.214;2024-02-28T11:31:16;12.30;25.70
578;DHT22;275;48.492;9.214;2024-02-28T11:33:44;12.20;25.90
578;DHT22;275;48.492;9.214;2024-02-28T11:36:11;11.60;26.90
578;DHT22;275;48.492;9.214;2024-02-28T11:38:39;11.50;27.30
578;DHT22;275;48.492;9.214;2024-02-28T11:41:07;11.60;27.00
578;DHT22;275;48.492;9.214;2024-02-28T11:43:34;11.90;26.40
578;DHT22;275;48.492;9.214;2024-02-28T11:46:01;12.40;25.50
578;DHT22;275;48.492;9.214;2024-02-28T11:48:31;12.50;25.10
578;DHT22;275;48.492;9.214;2024-02-28T11:50:58;12.70;24.80
578;DHT22;275;48.492;9.214;2024-02-28T11:53:25;12.50;25.30
578;DHT22;275;48.492;9.214;2024-02-28T11:55:53;12.50;25.30
578;DHT22;275;48.492;9.214;2024-02-28T11:58:21;12.60;24.80
578;DHT22;275;48.492;9.214;2024-02-28T12:00:48;12.40;25.30
578;DHT22;275;48.492;9.214;2024-02-28T12:03:20;12.60;25.00
578;DHT22;275;48.492;9.214;2024-02-28T12:05:49;12.60;25.00
578;DHT22;275;48.492;9.214;2024-02-28T12:08:17;12.40;25.40
578;DHT22;275;48.492;9.214;2024-02-28T12:10:45;12.10;25.50
578;DHT22;275;48.492;9.214;2024-02-28T12:13:16;12.50;24.90
578;DHT22;275;48.492;9.214;2024-02-28T12:15:43;12.80;24.50
578;DHT22;275;48.492;9.214;2024-02-28T12:18:11;11.90;25.70
578;DHT22;275;48.492;9.214;2024-02-28T12:20:38;11.30;27.00
578;DHT22;275;48.492;9.214;2024-02-28T12:23:06;11.70;26.40
578;DHT22;275;48.492;9.214;2024-02-28T12:25:34;11.50;26.70
578;DHT22;275;48.492;9.214;2024-02-28T12:28:01;11.40;26.70
578;DHT22;275;48.492;9.214;2024-02-28T12:30:31;11.20;27.00
578;DHT22;275;48.492;9.214;2024-02-28T12:32:57;11.40;26.90
578;DHT22;275;48.492;9.214;2024-02-28T12:35:25;11.90;25.60
578;DHT22;275;48.492;9.214;2024-02-28T12:37:52;12.30;24.90
578;DHT22;275;48.492;9.214;2024-02-28T12:40:23;12.20;25.10
578;DHT22;275;48.492;9.214;2024-02-28T12:42:50;12.20;25.00
578;DHT22;275;48.492;9.214;2024-02-28T12:45:17;12.30;25.00
578;DHT22;275;48.492;9.214;2024-02-28T12:47:44;11.80;25.60
578;DHT22;275;48.492;9.214;2024-02-28T12:50:11;11.90;25.50
578;DHT22;275;48.492;9.214;2024-02-28T12:52:38;12.00;25.50
578;DHT22;275;48.492;9.214;2024-02-28T12:55:05;12.30;25.10
578;DHT22;275;48.492;9.214;2024-02-28T12:57:33;12.60;24.40
578;DHT22;275;48.492;9.214;2024-02-28T13:00:00;12.50;24.40
578;DHT22;275;48.492;9.214;2024-02-28T13:02:27;12.50;24.40
578;DHT22;275;48.492;9.214;2024-02-28T13:04:54;11.90;25.60
578;DHT22;275;48.492;9.214;2024-02-28T13:07:21;10.90;27.20
578;DHT22;275;48.492;9.214;2024-02-28T13:09:48;10.40;28.30
578;DHT22;275;48.492;9.214;2024-02-28T13:12:15;10.50;27.80
578;DHT22;275;48.492;9.214;2024-02-28T13:14:43;11.30;26.80
578;DHT22;275;48.492;9.214;2024-02-28T13:17:10;11.70;26.20
578;DHT22;275;48.492;9.214;2024-02-28T13:19:42;11.90;25.80
578;DHT22;275;48.492;9.214;2024-02-28T13:22:12;11.50;26.60
578;DHT22;275;48.492;9.214;2024-02-28T13:24:39;11.10;27.70
578;DHT22;275;48.492;9.214;2024-02-28T13:27:06;11.80;26.20
578;DHT22;275;48.492;9.214;2024-02-28T13:29:33;11.80;25.90
578;DHT22;275;48.492;9.214;2024-02-28T13:32:01;11.30;27.00
578;DHT22;275;48.492;9.214;2024-02-28T13:34:28;11.10;27.40
578;DHT22;275;48.492;9.214;2024-02-28T13:36:57;10.80;28.70
578;DHT22;275;48.492;9.214;2024-02-28T13:39:24;11.30;27.30
578;DHT22;275;48.492;9.214;2024-02-28T13:41:52;11.70;26.40
578;DHT22;275;48.492;9.214;2024-02-28T13:44:19;11.70;26.40
578;DHT22;275;48.492;9.214;2024-02-28T13:46:46;12.20;25.20
578;DHT22;275;48.492;9.214;2024-02-28T13:49:16;12.40;25.00
578;DHT22;275;48.492;9.214;2024-02-28T13:51:43;12.40;25.10
578;DHT22;275;48.492;9.214;2024-02-28T13:54:10;11.80;25.60
578;DHT22;275;48.492;9.214;2024-02-28T13:56:37;10.70;28.00
578;DHT22;275;48.492;9.214;2024-02-28T13:59:06;11.20;27.20
578;DHT22;275;48.492;9.214;2024-02-28T14:01:33;11.80;26.10
578;DHT22;275;48.492;9.214;2024-02-28T14:03:59;12.10;25.90
578;DHT22;275;48.492;9.214;2024-02-28T14:06:28;12.00;25.60
578;DHT22;275;48.492;9.214;2024-02-28T14:08:54;12.00;25.60
578;DHT22;275;48.492;9.214;2024-02-28T14:11:22;11.70;26.20
578;DHT22;275;48.492;9.214;2024-02-28T14:13:49;11.00;27.50
578;DHT22;275;48.492;9.214;2024-02-28T14:16:16;11.10;27.20
578;DHT22;275;48.492;9.214;2024-02-28T14:18:44;10.90;27.80
578;DHT22;275;48.492;9.214;2024-02-28T14:21:11;10.90;28.00
578;DHT22;275;48.492;9.214;2024-02-28T14:23:40;11.00;27.70
578;DHT22;275;48.492;9.214;2024-02-28T14:26:07;11.00;27.70
578;DHT22;275;48.492;9.214;2024-02-28T14:28:34;10.90;27.80
578;DHT22;275;48.492;9.214;2024-02-28T14:31:01;10.70;28.00
578;DHT22;275;48.492;9.214;2024-02-28T14:33:28;10.90;27.90
578;DHT22;275;48.492;9.214;2024-02-28T14:35:55;10.80;27.90
578;DHT22;275;48.492;9.214;2024-02-28T14:38:22;10.70;28.10
578;DHT22;275;48.492;9.214;2024-02-28T14:40:50;11.30;27.00
578;DHT22;275;48.492;9.214;2024-02-28T14:43:17;11.30;26.70
578;DHT22;275;48.492;9.214;2024-02-28T14:45:44;11.40;26.60
578;DHT22;275;48.492;9.214;2024-02-28T14:48:11;11.60;26.40
578;DHT22;275;48.492;9.214;2024-02-28T14:50:37;11.20;27.00
578;DHT22;275;48.492;9.214;2024-02-28T14:53:04;11.40;26.70
578;DHT22;275;48.492;9.214;2024-02-28T14:55:31;11.90;26.00
578;DHT22;275;48.492;9.214;2024-02-28T14:57:59;12.30;25.20
578;DHT22;275;48.492;9.214;2024-02-28T15:00:27;12.40;24.80
578;DHT22;275;48.492;9.214;2024-02-28T15:02:54;12.10;25.30
578;DHT22;275;48.492;9.214;2024-02-28T15:05:21;12.10;25.30
578;DHT22;275;48.492;9.214;2024-02-28T15:07:49;11.20;26.40
578;DHT22;275;48.492;9.214;2024-02-28T15:10:15;10.50;28.10
578;DHT22;275;48.492;9.214;2024-02-28T15:12:42;10.80;27.60
578;DHT22;275;48.492;9.214;2024-02-28T15:15:12;11.00;27.20
578;DHT22;275;48.492;9.214;2024-02-28T15:17:40;10.90;27.30
578;DHT22;275;48.492;9.214;2024-02-28T15:20:08;10.90;27.30
578;DHT22;275;48.492;9.214;2024-02-28T15:22:35;11.40;26.40
578;DHT22;275;48.492;9.214;2024-02-28T15:25:01;11.20;26.60
578;DHT22;275;48.492;9.214;2024-02-28T15:27:28;11.00;27.00
578;DHT22;275;48.492;9.214;2024-02-28T15:29:55;10.60;27.90
578;DHT22;275;48.492;9.214;2024-02-28T15:32:23;10.10;29.00
578;DHT22;275;48.492;9.214;2024-02-28T15:34:50;9.90;30.00
578;DHT22;275;48.492;9.214;2024-02-28T15:37:18;9.50;31.20
578;DHT22;275;48.492;9.214;2024-02-28T15:39:44;10.00;29.40
578;DHT22;275;48.492;9.214;2024-02-28T15:42:11;10.60;28.20
578;DHT22;275;48.492;9.214;2024-02-28T15:44:41;10.40;28.50
578;DHT22;275;48.492;9.214;2024-02-28T15:47:08;11.00;27.50
578;DHT22;275;48.492;9.214;2024-02-28T15:49:37;10.40;28.30
578;DHT22;275;48.492;9.214;2024-02-28T15:52:04;10.40;28.40
578;DHT22;275;48.492;9.214;2024-02-28T15:54:31;10.50;28.20
578;DHT22;275;48.492;9.214;2024-02-28T15:56:58;10.70;28.30
578;DHT22;275;48.492;9.214;2024-02-28T15:59:26;11.20;27.30
578;DHT22;275;48.492;9.214;2024-02-28T16:01:52;11.40;26.80
578;DHT22;275;48.492;9.214;2024-02-28T16:04:19;11.50;26.50
578;DHT22;275;48.492;9.214;2024-02-28T16:06:48;11.90;25.90
578;DHT22;275;48.492;9.214;2024-02-28T16:09:14;11.90;26.10
578;DHT22;275;48.492;9.214;2024-02-28T16:11:43;11.70;26.00
578;DHT22;275;48.492;9.214;2024-02-28T16:14:10;11.20;26.80
578;DHT22;275;48.492;9.214;2024-02-28T16:16:37;11.60;26.30
578;DHT22;275;48.492;9.214;2024-02-28T16:19:03;11.50;26.30
578;DHT22;275;48.492;9.214;2024-02-28T16:21:30;11.50;26.40
578;DHT22;275;48.492;9.214;2024-02-28T16:23:59;11.60;26.30
578;DHT22;275;48.492;9.214;2024-02-28T16:26:26;11.20;27.20
578;DHT22;275;48.492;9.214;2024-02-28T16:28:52;10.50;28.40
578;DHT22;275;48.492;9.214;2024-02-28T16:31:19;10.40;28.60
578;DHT22;275;48.492;9.214;2024-02-28T16:33:46;11.10;27.50
578;DHT22;275;48.492;9.214;2024-02-28T16:36:13;11.50;26.70